Star, Idaho
Current Conditions -  °F | °C
As of 6:35 PM on Monday 20 Oct 2014 (Local Time) from KMAN Reporting Station
Clear Clear  
Wind Chill: 20°   Ceiling: Unl
Heat Index: 20°   Visibility: 2mi
Dew Point:   Wind: 6mph
Humidity: 35%   Direction: 320°NW
Pressure: 29.71"   Gusts: NA
Location:  43.69°N, 116.49°W
Report Text: KMAN 210035Z AUTO 32005KT 2SM CLR 20/04 A2971 RMK AO1
Loading
Personal Weather Stations






























Interactive Weather Map
Tropical Storm Tracking
New forecast layout! Learn more

10-Day Weather Forecast

Advertisements
Track Severe Weather on mobile